createdAt,value
2022-07-29T00:01:54.304Z,2.33
2022-07-29T00:04:59.812Z,1.90
2022-07-29T00:08:07.240Z,1.95
2022-07-29T00:11:13.954Z,2.22
2022-07-29T00:14:21.299Z,1.92
2022-07-29T00:17:27.663Z,2.03
2022-07-29T00:23:43.801Z,2.10
2022-07-29T00:26:46.948Z,2.17
2022-07-29T00:29:52.477Z,1.67
2022-07-29T00:32:55.005Z,1.77
2022-07-29T00:36:01.242Z,1.90
2022-07-29T00:39:04.500Z,1.77
2022-07-29T00:42:08.329Z,1.80
2022-07-29T00:45:16.141Z,2.00
2022-07-29T00:48:18.964Z,2.03
2022-07-29T00:51:22.915Z,1.95
2022-07-29T00:54:28.509Z,1.80
2022-07-29T00:57:35.812Z,1.80
2022-07-29T01:00:38.927Z,2.83
2022-07-29T01:03:41.667Z,1.90
2022-07-29T01:06:45.185Z,1.87
2022-07-29T01:09:48.371Z,1.90
2022-07-29T01:13:00.261Z,1.67
2022-07-29T01:16:13.093Z,1.87
2022-07-29T01:19:40.033Z,1.65
2022-07-29T01:23:03.500Z,1.70
2022-07-29T01:26:35.997Z,1.77
2022-07-29T01:29:59.757Z,1.80
2022-07-29T01:33:09.118Z,1.90
2022-07-29T01:36:17.750Z,1.90
2022-07-29T01:39:37.429Z,1.95
2022-07-29T01:42:45.426Z,2.03
2022-07-29T01:46:02.750Z,2.03
2022-07-29T01:49:14.943Z,2.30
2022-07-29T01:52:34.149Z,2.08
2022-07-29T01:55:41.310Z,2.25
2022-07-29T01:58:46.756Z,1.83
2022-07-29T02:02:00.891Z,2.05
2022-07-29T02:05:06.999Z,2.20
2022-07-29T02:08:11.656Z,2.28
2022-07-29T02:11:18.501Z,2.50
2022-07-29T02:14:24.644Z,2.12
2022-07-29T02:17:36.132Z,2.20
2022-07-29T02:20:51.468Z,2.10
2022-07-29T02:23:55.764Z,2.40
2022-07-29T02:27:05.196Z,2.17
2022-07-29T02:30:31.768Z,2.22
2022-07-29T02:33:58.512Z,2.08
2022-07-29T02:37:13.607Z,2.25
2022-07-29T02:40:16.695Z,2.37
2022-07-29T02:43:23.781Z,2.30
2022-07-29T02:46:32.946Z,2.22
2022-07-29T02:49:52.277Z,2.15
2022-07-29T02:53:18.890Z,2.20
2022-07-29T02:56:28.603Z,2.20
2022-07-29T02:59:38.031Z,2.42
2022-07-29T03:02:53.488Z,2.50
2022-07-29T03:06:28.115Z,2.50
2022-07-29T03:09:43.810Z,2.45
2022-07-29T03:15:53.592Z,2.40
2022-07-29T03:18:56.896Z,2.22
2022-07-29T03:22:03.987Z,2.40
2022-07-29T03:25:12.643Z,2.12
2022-07-29T03:28:15.976Z,2.53
2022-07-29T03:31:18.961Z,2.67
2022-07-29T03:34:23.488Z,2.50
2022-07-29T03:37:26.402Z,2.62
2022-07-29T03:40:37.292Z,2.67
2022-07-29T03:43:49.112Z,2.70
2022-07-29T03:46:56.557Z,2.50
2022-07-29T03:50:05.490Z,2.40
2022-07-29T03:53:15.495Z,2.47
2022-07-29T03:56:22.538Z,2.20
2022-07-29T03:59:26.312Z,2.00
2022-07-29T04:02:30.848Z,2.05
2022-07-29T04:05:36.670Z,2.20
2022-07-29T04:08:40.095Z,2.20
2022-07-29T04:11:56.983Z,2.05
2022-07-29T04:15:07.881Z,2.17
2022-07-29T04:18:15.439Z,2.40
2022-07-29T04:21:17.969Z,2.12
2022-07-29T04:24:23.255Z,2.47
2022-07-29T04:27:33.102Z,2.35
2022-07-29T04:30:45.573Z,2.70
2022-07-29T04:33:48.217Z,2.37
2022-07-29T04:36:52.445Z,2.50
2022-07-29T04:39:56.375Z,2.58
2022-07-29T04:42:59.291Z,2.50
2022-07-29T04:46:10.199Z,2.50
2022-07-29T04:49:13.212Z,2.25
2022-07-29T04:52:15.887Z,2.53
2022-07-29T04:55:21.992Z,2.30
2022-07-29T04:58:27.357Z,2.83
2022-07-29T05:01:30.287Z,2.55
2022-07-29T05:04:36.205Z,2.20
2022-07-29T05:07:40.443Z,2.15
2022-07-29T05:10:45.359Z,2.53
2022-07-29T05:13:50.822Z,2.05
2022-07-29T05:16:57.611Z,2.40
2022-07-29T05:20:00.404Z,2.60
2022-07-29T05:23:05.520Z,2.50
2022-07-29T05:26:08.402Z,2.30
2022-07-29T05:29:43.840Z,2.53
2022-07-29T05:32:33.737Z,2.33
2022-07-29T05:35:39.848Z,2.47
2022-07-29T05:38:51.375Z,2.60
2022-07-29T05:42:03.075Z,2.50
2022-07-29T05:45:06.572Z,2.60
2022-07-29T05:48:09.282Z,2.30
2022-07-29T05:51:20.216Z,2.28
2022-07-29T05:54:23.494Z,2.62
2022-07-29T05:57:27.049Z,2.65
2022-07-29T06:00:29.777Z,2.58
2022-07-29T06:03:32.610Z,2.33
2022-07-29T06:06:35.842Z,2.50
2022-07-29T06:09:39.114Z,2.50
2022-07-29T06:12:41.632Z,2.25
2022-07-29T06:15:52.516Z,2.53
2022-07-29T06:18:55.491Z,2.12
2022-07-29T06:21:58.686Z,2.50
2022-07-29T06:25:08.014Z,2.08
2022-07-29T06:28:14.759Z,2.40
2022-07-29T06:31:19.255Z,2.50
2022-07-29T06:34:22.436Z,2.30
2022-07-29T06:37:28.082Z,2.60
2022-07-29T06:40:51.617Z,2.60
2022-07-29T06:44:00.202Z,2.35
2022-07-29T06:47:15.147Z,2.87
2022-07-29T06:50:20.664Z,2.58
2022-07-29T06:53:25.866Z,2.80
2022-07-29T06:56:40.228Z,2.90
2022-07-29T07:00:05.841Z,2.90
2022-07-29T07:03:08.698Z,2.67
2022-07-29T07:06:14.950Z,2.92
2022-07-29T07:09:18.131Z,3.00
2022-07-29T07:12:23.335Z,2.70
2022-07-29T07:15:39.857Z,3.30
2022-07-29T07:18:46.407Z,3.05
2022-07-29T07:21:49.366Z,2.60
2022-07-29T07:25:04.893Z,2.78
2022-07-29T07:28:44.242Z,3.28
2022-07-29T07:32:25.325Z,2.70
2022-07-29T07:35:50.654Z,3.20
2022-07-29T07:39:32.225Z,2.85
2022-07-29T07:43:03.054Z,2.90
2022-07-29T07:46:43.361Z,2.67
2022-07-29T07:50:01.566Z,3.30
2022-07-29T07:53:51.374Z,2.90
2022-07-29T07:57:32.578Z,2.83
2022-07-29T08:00:49.007Z,2.78
2022-07-29T08:04:20.994Z,2.80
2022-07-29T08:07:46.752Z,2.67
2022-07-29T08:11:21.165Z,2.60
2022-07-29T08:14:48.595Z,2.53
2022-07-29T08:18:14.856Z,2.70
2022-07-29T08:21:40.133Z,2.62
2022-07-29T08:25:21.381Z,2.90
2022-07-29T08:28:41.988Z,2.97
2022-07-29T08:32:36.935Z,2.50
2022-07-29T08:36:00.754Z,2.70
2022-07-29T08:43:37.559Z,2.70
2022-07-29T08:47:26.015Z,2.42
2022-07-29T08:51:29.677Z,2.42
2022-07-29T09:12:50.525Z,2.50
2022-07-29T09:20:27.522Z,2.15
2022-07-29T09:50:25.941Z,1.80
2022-07-29T09:54:35.537Z,2.12
2022-07-29T09:58:23.670Z,1.70
2022-07-29T10:02:02.260Z,1.77
2022-07-29T10:05:41.522Z,2.00
2022-07-29T10:09:11.805Z,1.65
2022-07-29T10:12:53.932Z,2.08
2022-07-29T10:16:34.280Z,1.62
2022-07-29T10:20:00.825Z,1.80
2022-07-29T10:23:47.044Z,1.85
2022-07-29T10:27:07.354Z,1.73
2022-07-29T10:30:41.780Z,1.95
2022-07-29T10:34:54.830Z,2.00
2022-07-29T10:38:45.715Z,1.60
2022-07-29T10:42:29.782Z,1.50
2022-07-29T10:45:57.761Z,1.70
2022-07-29T10:49:30.960Z,1.83
2022-07-29T10:53:00.026Z,1.70
2022-07-29T10:56:30.483Z,1.70
2022-07-29T11:00:09.455Z,1.92
2022-07-29T11:03:57.250Z,1.70
2022-07-29T11:08:25.303Z,1.90
2022-07-29T11:11:52.101Z,1.60
2022-07-29T11:16:29.937Z,1.55
2022-07-29T11:19:26.176Z,2.00
2022-07-29T11:30:14.571Z,1.70
2022-07-29T11:33:56.530Z,1.77
2022-07-29T11:37:32.550Z,1.77
2022-07-29T11:41:24.132Z,1.85
2022-07-29T11:45:44.122Z,2.00
2022-07-29T11:48:32.649Z,1.70
2022-07-29T11:52:11.838Z,1.83
2022-07-29T11:55:51.609Z,1.80
2022-07-29T11:59:15.461Z,1.70
2022-07-29T12:02:48.665Z,1.95
2022-07-29T12:06:22.454Z,2.00
2022-07-29T12:10:20.037Z,1.98
2022-07-29T12:13:44.975Z,1.75
2022-07-29T12:17:30.877Z,1.65
2022-07-29T12:21:13.013Z,1.67
2022-07-29T12:25:23.258Z,1.70
2022-07-29T12:28:28.165Z,1.80
2022-07-29T12:31:58.265Z,2.10
2022-07-29T12:35:34.794Z,2.12
2022-07-29T12:39:02.326Z,2.03
2022-07-29T12:42:37.333Z,1.92
2022-07-29T12:46:17.429Z,2.05
2022-07-29T12:49:38.037Z,1.90
2022-07-29T12:53:12.660Z,2.00
2022-07-29T12:56:42.276Z,1.80
2022-07-29T13:00:09.077Z,1.80
2022-07-29T13:03:30.251Z,2.00
2022-07-29T13:07:07.667Z,1.80
2022-07-29T13:10:38.873Z,1.60
2022-07-29T13:14:06.599Z,1.70
2022-07-29T13:17:32.964Z,2.00
2022-07-29T13:24:56.113Z,2.08
2022-07-29T13:32:04.922Z,1.70
2022-07-29T13:35:35.167Z,1.85
2022-07-29T13:39:04.048Z,1.85
2022-07-29T13:42:45.435Z,2.10
2022-07-29T13:46:14.255Z,2.00
2022-07-29T13:49:54.170Z,1.90
2022-07-29T13:53:39.608Z,1.65
2022-07-29T13:57:16.561Z,1.70
2022-07-29T14:00:52.674Z,1.90
2022-07-29T14:04:24.338Z,1.73
2022-07-29T14:07:51.980Z,1.90
2022-07-29T14:11:34.889Z,2.12
2022-07-29T14:15:05.317Z,1.70
2022-07-29T14:18:46.138Z,1.83
2022-07-29T14:22:11.054Z,1.90
2022-07-29T14:25:49.496Z,1.95
2022-07-29T14:29:17.218Z,1.67
2022-07-29T14:33:04.426Z,1.62
2022-07-29T14:36:33.961Z,1.90
2022-07-29T14:40:21.410Z,2.00
2022-07-29T14:44:08.964Z,1.90
2022-07-29T14:47:34.858Z,1.70
2022-07-29T14:51:05.294Z,1.85
2022-07-29T14:54:45.501Z,2.10
2022-07-29T14:58:16.477Z,2.00
2022-07-29T15:01:55.282Z,1.92
2022-07-29T15:05:22.656Z,1.90
2022-07-29T15:09:03.449Z,1.95
2022-07-29T15:12:31.973Z,1.92
2022-07-29T15:16:00.296Z,1.83
2022-07-29T15:19:24.401Z,1.77
2022-07-29T15:23:03.671Z,2.00
2022-07-29T15:26:31.125Z,1.83
2022-07-29T15:30:10.835Z,1.95
2022-07-29T15:33:36.471Z,1.95
2022-07-29T15:37:14.137Z,1.90
2022-07-29T15:40:47.497Z,2.17
2022-07-29T15:44:24.061Z,2.03
2022-07-29T15:47:51.523Z,1.85
2022-07-29T15:51:29.148Z,1.80
2022-07-29T15:54:57.778Z,2.00
2022-07-29T15:58:43.826Z,1.90
2022-07-29T16:02:14.477Z,1.95
2022-07-29T16:05:55.795Z,1.90
2022-07-29T16:09:24.011Z,2.00
2022-07-29T16:13:08.135Z,2.10
2022-07-29T16:16:35.604Z,1.80
2022-07-29T16:20:08.228Z,1.70
2022-07-29T16:23:52.917Z,2.12
2022-07-29T16:27:18.719Z,1.98
2022-07-29T16:30:48.721Z,2.10
2022-07-29T16:34:24.699Z,1.95
2022-07-29T16:37:56.563Z,1.83
2022-07-29T16:41:27.489Z,1.70
2022-07-29T16:48:44.417Z,3.33
2022-07-29T16:52:15.927Z,1.90
2022-07-29T16:55:42.097Z,3.30
2022-07-29T16:59:19.475Z,2.40
2022-07-29T17:03:01.541Z,2.03
2022-07-29T17:06:50.746Z,2.42
2022-07-29T17:10:16.349Z,2.40
2022-07-29T17:14:00.482Z,1.73
2022-07-29T17:17:38.798Z,2.00
2022-07-29T17:21:29.972Z,2.03
2022-07-29T17:25:02.863Z,2.20
2022-07-29T17:28:48.510Z,2.10
2022-07-29T17:32:14.279Z,2.10
2022-07-29T17:39:35.711Z,2.17
2022-07-29T17:43:13.539Z,2.10
2022-07-29T17:46:41.597Z,2.05
2022-07-29T17:50:23.785Z,2.35
2022-07-29T17:53:52.882Z,2.50
2022-07-29T17:57:33.950Z,2.00
2022-07-29T18:00:59.913Z,2.60
2022-07-29T18:04:38.783Z,2.62
2022-07-29T18:08:06.844Z,2.78
2022-07-29T18:11:46.264Z,2.33
2022-07-29T18:15:11.431Z,2.28
2022-07-29T18:18:48.976Z,2.40
2022-07-29T18:22:26.828Z,2.90
2022-07-29T18:26:07.255Z,2.30
2022-07-29T18:29:34.761Z,2.67
2022-07-29T18:33:21.644Z,3.05
2022-07-29T18:36:47.874Z,2.80
2022-07-29T18:40:25.852Z,4.72
2022-07-29T18:43:51.302Z,4.10
2022-07-29T18:47:32.240Z,3.95
2022-07-29T18:51:09.287Z,3.30
2022-07-29T18:54:45.446Z,3.37
2022-07-29T18:58:13.814Z,3.15
2022-07-29T19:02:06.240Z,3.17
2022-07-29T19:05:45.715Z,2.47
2022-07-29T19:09:17.256Z,3.17
2022-07-29T19:12:54.547Z,2.92
2022-07-29T19:16:27.360Z,3.47
2022-07-29T19:20:08.142Z,3.92
2022-07-29T19:24:00.072Z,4.50
2022-07-29T19:27:13.641Z,3.22
2022-07-29T19:30:44.272Z,3.17
2022-07-29T19:34:35.395Z,1.95
2022-07-29T19:38:04.538Z,2.10
2022-07-29T19:41:44.093Z,1.65
2022-07-29T19:45:10.325Z,2.10
2022-07-29T19:48:39.973Z,2.28
2022-07-29T19:52:05.937Z,2.30
2022-07-29T19:55:46.601Z,2.17
2022-07-29T19:59:04.323Z,1.95
2022-07-29T20:02:34.328Z,2.10
2022-07-29T20:06:04.795Z,1.90
2022-07-29T20:09:22.153Z,1.92
2022-07-29T20:12:55.069Z,2.20
2022-07-29T20:16:18.890Z,2.22
2022-07-29T20:19:39.053Z,1.98
2022-07-29T20:23:06.922Z,2.00
2022-07-29T20:26:38.036Z,2.15
2022-07-29T20:30:15.383Z,1.90
2022-07-29T20:33:40.473Z,2.10
2022-07-29T20:37:28.983Z,1.98
2022-07-29T20:40:58.689Z,2.20
2022-07-29T20:44:37.163Z,2.12
2022-07-29T20:48:08.143Z,2.60
2022-07-29T20:51:43.729Z,2.03
2022-07-29T20:55:11.818Z,2.03
2022-07-29T20:58:52.845Z,1.95
2022-07-29T21:02:18.381Z,2.60
2022-07-29T21:05:57.446Z,2.12
2022-07-29T21:09:22.403Z,2.22
2022-07-29T21:13:00.095Z,2.28
2022-07-29T21:16:26.782Z,2.10
2022-07-29T21:20:10.311Z,2.30
2022-07-29T21:23:44.390Z,2.50
2022-07-29T21:27:32.621Z,2.30
2022-07-29T21:31:02.706Z,2.40
2022-07-29T21:34:44.942Z,2.50
2022-07-29T21:38:18.838Z,2.65
2022-07-29T21:41:58.755Z,2.28
2022-07-29T21:45:26.613Z,2.30
2022-07-29T21:49:07.604Z,2.33
2022-07-29T21:52:33.270Z,2.35
2022-07-29T21:56:02.427Z,2.47
2022-07-29T21:59:28.253Z,2.20
2022-07-29T22:03:05.763Z,2.50
2022-07-29T22:06:45.654Z,2.33
2022-07-29T22:10:18.700Z,2.37
2022-07-29T22:13:58.915Z,2.35
2022-07-29T22:17:26.828Z,2.20
2022-07-29T22:21:04.481Z,2.12
2022-07-29T22:24:32.338Z,2.53
2022-07-29T22:28:12.425Z,2.55
2022-07-29T22:31:37.437Z,2.05
2022-07-29T22:35:15.856Z,2.10
2022-07-29T22:38:43.135Z,2.22
2022-07-29T22:42:20.269Z,2.20
2022-07-29T22:45:55.610Z,2.17
2022-07-29T22:49:34.157Z,2.45
2022-07-29T22:53:01.862Z,2.45
2022-07-29T22:56:39.588Z,2.30
2022-07-29T23:00:11.696Z,2.22
2022-07-29T23:03:52.434Z,2.28
2022-07-29T23:07:22.439Z,2.67
2022-07-29T23:11:03.137Z,2.25
2022-07-29T23:14:28.488Z,2.65
2022-07-29T23:18:09.323Z,2.20
2022-07-29T23:25:15.760Z,2.50
2022-07-29T23:28:46.515Z,2.28
2022-07-29T23:32:26.436Z,2.37
2022-07-29T23:35:51.586Z,2.87
2022-07-29T23:39:29.303Z,2.35
2022-07-29T23:42:57.016Z,2.58
2022-07-29T23:46:35.225Z,2.40
2022-07-29T23:50:00.912Z,2.90
2022-07-29T23:53:39.381Z,2.60
2022-07-29T23:57:07.043Z,2.60
